sensor_id;sensor_type;location;lat;lon;timestamp;pressure;altitude;pressure_sealevel;temperature;humidity
59073;BME280;44859;51.934;15.554;2023-06-22T00:02:23;100005.80;;;19.58;80.11
59073;BME280;44859;51.934;15.554;2023-06-22T00:04:51;100011.53;;;19.51;80.52
59073;BME280;44859;51.934;15.554;2023-06-22T00:07:18;100016.56;;;19.46;80.68
59073;BME280;44859;51.934;15.554;2023-06-22T00:09:47;100016.21;;;19.40;80.98
59073;BME280;44859;51.934;15.554;2023-06-22T00:12:14;100020.35;;;19.35;81.35
59073;BME280;44859;51.934;15.554;2023-06-22T00:14:41;100019.44;;;19.31;81.46
59073;BME280;44859;51.934;15.554;2023-06-22T00:17:08;100020.94;;;19.25;81.99
59073;BME280;44859;51.934;15.554;2023-06-22T00:19:35;100021.17;;;19.20;82.07
59073;BME280;44859;51.934;15.554;2023-06-22T00:22:03;100028.55;;;19.17;82.24
59073;BME280;44859;51.934;15.554;2023-06-22T00:24:37;100032.59;;;19.11;82.44
59073;BME280;44859;51.934;15.554;2023-06-22T00:27:05;100036.71;;;19.06;83.02
59073;BME280;44859;51.934;15.554;2023-06-22T00:29:32;100035.46;;;19.01;83.18
59073;BME280;44859;51.934;15.554;2023-06-22T00:31:59;100038.30;;;18.97;83.55
59073;BME280;44859;51.934;15.554;2023-06-22T00:34:27;100049.88;;;18.93;83.91
59073;BME280;44859;51.934;15.554;2023-06-22T00:36:54;100049.72;;;18.90;83.95
59073;BME280;44859;51.934;15.554;2023-06-22T00:39:21;100052.98;;;18.87;84.38
59073;BME280;44859;51.934;15.554;2023-06-22T00:41:49;100054.73;;;18.83;84.57
59073;BME280;44859;51.934;15.554;2023-06-22T00:44:19;100058.70;;;18.80;84.77
59073;BME280;44859;51.934;15.554;2023-06-22T00:46:46;100059.16;;;18.77;85.11
59073;BME280;44859;51.934;15.554;2023-06-22T00:49:14;100060.92;;;18.72;85.21
59073;BME280;44859;51.934;15.554;2023-06-22T00:51:41;100066.92;;;18.68;85.19
59073;BME280;44859;51.934;15.554;2023-06-22T00:54:13;100066.17;;;18.64;85.81
59073;BME280;44859;51.934;15.554;2023-06-22T00:57:00;100069.10;;;18.65;85.96
59073;BME280;44859;51.934;15.554;2023-06-22T00:59:28;100070.52;;;18.67;85.85
59073;BME280;44859;51.934;15.554;2023-06-22T01:01:56;100070.45;;;18.66;86.41
59073;BME280;44859;51.934;15.554;2023-06-22T01:04:34;100066.59;;;18.63;86.50
59073;BME280;44859;51.934;15.554;2023-06-22T01:07:25;100068.60;;;18.60;86.42
59073;BME280;44859;51.934;15.554;2023-06-22T01:12:30;100069.98;;;18.51;87.08
59073;BME280;44859;51.934;15.554;2023-06-22T01:15:13;100071.05;;;18.47;87.17
59073;BME280;44859;51.934;15.554;2023-06-22T01:17:43;100070.73;;;18.42;87.37
59073;BME280;44859;51.934;15.554;2023-06-22T01:20:16;100066.80;;;18.38;87.59
59073;BME280;44859;51.934;15.554;2023-06-22T01:26:17;100073.84;;;18.29;88.07
59073;BME280;44859;51.934;15.554;2023-06-22T01:28:53;100075.79;;;18.24;88.06
59073;BME280;44859;51.934;15.554;2023-06-22T01:31:25;100075.98;;;18.22;88.61
59073;BME280;44859;51.934;15.554;2023-06-22T01:34:01;100081.02;;;18.21;89.02
59073;BME280;44859;51.934;15.554;2023-06-22T01:36:31;100081.80;;;18.20;89.29
59073;BME280;44859;51.934;15.554;2023-06-22T01:38:59;100081.86;;;18.19;89.52
59073;BME280;44859;51.934;15.554;2023-06-22T01:41:44;100088.16;;;18.18;89.44
59073;BME280;44859;51.934;15.554;2023-06-22T01:44:12;100091.52;;;18.16;89.89
59073;BME280;44859;51.934;15.554;2023-06-22T01:46:39;100098.10;;;18.13;90.02
59073;BME280;44859;51.934;15.554;2023-06-22T01:49:08;100101.54;;;18.13;90.24
59073;BME280;44859;51.934;15.554;2023-06-22T01:51:57;100102.55;;;18.11;90.55
59073;BME280;44859;51.934;15.554;2023-06-22T01:54:24;100106.72;;;18.10;90.52
59073;BME280;44859;51.934;15.554;2023-06-22T01:56:51;100105.83;;;18.08;90.48
59073;BME280;44859;51.934;15.554;2023-06-22T01:59:28;100102.98;;;18.05;90.75
59073;BME280;44859;51.934;15.554;2023-06-22T02:02:12;100100.96;;;18.02;90.79
59073;BME280;44859;51.934;15.554;2023-06-22T02:10:28;100094.54;;;17.92;91.13
59073;BME280;44859;51.934;15.554;2023-06-22T02:12:57;100094.92;;;17.92;91.37
59073;BME280;44859;51.934;15.554;2023-06-22T02:15:26;100095.71;;;17.91;91.72
59073;BME280;44859;51.934;15.554;2023-06-22T02:21:44;100107.92;;;17.82;91.92
59073;BME280;44859;51.934;15.554;2023-06-22T02:24:12;100111.30;;;17.79;92.10
59073;BME280;44859;51.934;15.554;2023-06-22T02:26:50;100117.02;;;17.76;92.44
59073;BME280;44859;51.934;15.554;2023-06-22T02:29:17;100114.56;;;17.73;92.63
59073;BME280;44859;51.934;15.554;2023-06-22T02:31:44;100115.38;;;17.72;93.15
59073;BME280;44859;51.934;15.554;2023-06-22T02:34:11;100117.95;;;17.71;93.25
59073;BME280;44859;51.934;15.554;2023-06-22T02:36:43;100116.86;;;17.69;93.16
59073;BME280;44859;51.934;15.554;2023-06-22T02:39:21;100115.48;;;17.68;93.31
59073;BME280;44859;51.934;15.554;2023-06-22T02:41:59;100116.42;;;17.67;93.56
59073;BME280;44859;51.934;15.554;2023-06-22T02:44:34;100111.78;;;17.66;93.59
59073;BME280;44859;51.934;15.554;2023-06-22T02:47:01;100115.54;;;17.65;94.11
59073;BME280;44859;51.934;15.554;2023-06-22T02:49:29;100118.35;;;17.66;94.09
59073;BME280;44859;51.934;15.554;2023-06-22T02:51:57;100117.82;;;17.66;94.16
59073;BME280;44859;51.934;15.554;2023-06-22T02:54:26;100120.45;;;17.66;94.02
59073;BME280;44859;51.934;15.554;2023-06-22T02:57:01;100118.19;;;17.65;94.28
59073;BME280;44859;51.934;15.554;2023-06-22T02:59:32;100116.15;;;17.64;94.25
59073;BME280;44859;51.934;15.554;2023-06-22T03:02:01;100119.97;;;17.63;94.33
59073;BME280;44859;51.934;15.554;2023-06-22T03:04:30;100119.70;;;17.61;94.45
59073;BME280;44859;51.934;15.554;2023-06-22T03:06:58;100121.00;;;17.60;94.37
59073;BME280;44859;51.934;15.554;2023-06-22T03:09:28;100124.17;;;17.60;94.42
59073;BME280;44859;51.934;15.554;2023-06-22T03:11:56;100126.94;;;17.62;94.64
59073;BME280;44859;51.934;15.554;2023-06-22T03:14:23;100127.69;;;17.64;94.66
59073;BME280;44859;51.934;15.554;2023-06-22T03:16:51;100132.38;;;17.68;94.86
59073;BME280;44859;51.934;15.554;2023-06-22T03:19:19;100131.08;;;17.71;95.25
59073;BME280;44859;51.934;15.554;2023-06-22T03:21:48;100132.59;;;17.74;95.06
59073;BME280;44859;51.934;15.554;2023-06-22T03:24:18;100134.38;;;17.79;95.18
59073;BME280;44859;51.934;15.554;2023-06-22T03:26:45;100127.77;;;17.82;95.21
59073;BME280;44859;51.934;15.554;2023-06-22T03:29:14;100127.27;;;17.86;95.16
59073;BME280;44859;51.934;15.554;2023-06-22T03:31:43;100127.69;;;17.91;95.38
59073;BME280;44859;51.934;15.554;2023-06-22T03:34:14;100127.46;;;17.94;95.52
59073;BME280;44859;51.934;15.554;2023-06-22T03:36:41;100124.39;;;17.97;95.47
59073;BME280;44859;51.934;15.554;2023-06-22T03:42:37;100138.52;;;18.08;95.52
59073;BME280;44859;51.934;15.554;2023-06-22T03:45:07;100140.85;;;18.10;95.66
59073;BME280;44859;51.934;15.554;2023-06-22T03:47:35;100143.76;;;18.11;95.40
59073;BME280;44859;51.934;15.554;2023-06-22T03:50:05;100144.72;;;18.15;95.52
59073;BME280;44859;51.934;15.554;2023-06-22T03:52:34;100141.45;;;18.19;95.50
59073;BME280;44859;51.934;15.554;2023-06-22T03:55:01;100144.73;;;18.22;95.47
59073;BME280;44859;51.934;15.554;2023-06-22T03:57:34;100147.11;;;18.28;95.57
59073;BME280;44859;51.934;15.554;2023-06-22T04:00:01;100151.16;;;18.36;95.70
59073;BME280;44859;51.934;15.554;2023-06-22T04:02:33;100157.47;;;18.44;95.77
59073;BME280;44859;51.934;15.554;2023-06-22T04:05:00;100158.55;;;18.51;96.13
59073;BME280;44859;51.934;15.554;2023-06-22T04:07:31;100157.10;;;18.59;96.00
59073;BME280;44859;51.934;15.554;2023-06-22T04:10:03;100155.95;;;18.64;96.17
59073;BME280;44859;51.934;15.554;2023-06-22T04:12:33;100161.30;;;18.69;96.17
59073;BME280;44859;51.934;15.554;2023-06-22T04:15:10;100161.48;;;18.74;96.23
59073;BME280;44859;51.934;15.554;2023-06-22T04:17:40;100165.02;;;18.78;96.27
59073;BME280;44859;51.934;15.554;2023-06-22T04:20:08;100165.67;;;18.84;96.22
59073;BME280;44859;51.934;15.554;2023-06-22T04:22:35;100159.85;;;18.88;95.87
59073;BME280;44859;51.934;15.554;2023-06-22T04:25:02;100152.86;;;18.93;96.25
59073;BME280;44859;51.934;15.554;2023-06-22T04:27:29;100145.66;;;18.97;96.10
59073;BME280;44859;51.934;15.554;2023-06-22T04:30:06;100137.11;;;19.01;96.08
59073;BME280;44859;51.934;15.554;2023-06-22T04:32:35;100131.62;;;19.03;96.04
59073;BME280;44859;51.934;15.554;2023-06-22T04:35:06;100130.60;;;19.08;96.12
59073;BME280;44859;51.934;15.554;2023-06-22T04:37:36;100132.20;;;19.12;95.88
59073;BME280;44859;51.934;15.554;2023-06-22T04:40:06;100132.22;;;19.16;96.24
59073;BME280;44859;51.934;15.554;2023-06-22T04:45:05;100129.35;;;19.28;96.11
59073;BME280;44859;51.934;15.554;2023-06-22T04:47:33;100130.39;;;19.34;96.00
59073;BME280;44859;51.934;15.554;2023-06-22T04:50:00;100123.05;;;19.44;96.09
59073;BME280;44859;51.934;15.554;2023-06-22T04:52:32;100121.13;;;19.54;95.77
59073;BME280;44859;51.934;15.554;2023-06-22T04:54:59;100113.33;;;19.65;95.78
59073;BME280;44859;51.934;15.554;2023-06-22T04:57:31;100108.66;;;19.77;95.55
59073;BME280;44859;51.934;15.554;2023-06-22T05:00:01;100108.02;;;19.89;95.52
59073;BME280;44859;51.934;15.554;2023-06-22T05:02:46;100115.22;;;20.01;95.22
59073;BME280;44859;51.934;15.554;2023-06-22T05:05:14;100120.66;;;20.13;94.92
59073;BME280;44859;51.934;15.554;2023-06-22T05:07:44;100129.45;;;20.25;94.68
59073;BME280;44859;51.934;15.554;2023-06-22T05:10:12;100138.10;;;20.37;94.27
59073;BME280;44859;51.934;15.554;2023-06-22T05:12:40;100138.77;;;20.50;94.10
59073;BME280;44859;51.934;15.554;2023-06-22T05:15:08;100130.61;;;20.64;93.58
59073;BME280;44859;51.934;15.554;2023-06-22T05:17:37;100127.62;;;20.70;92.54
59073;BME280;44859;51.934;15.554;2023-06-22T05:20:10;100128.29;;;20.83;91.54
59073;BME280;44859;51.934;15.554;2023-06-22T05:22:39;100129.16;;;21.06;90.65
59073;BME280;44859;51.934;15.554;2023-06-22T05:25:08;100128.97;;;21.23;88.96
59073;BME280;44859;51.934;15.554;2023-06-22T05:27:37;100126.73;;;21.38;87.52
59073;BME280;44859;51.934;15.554;2023-06-22T05:30:07;100121.20;;;21.56;86.59
59073;BME280;44859;51.934;15.554;2023-06-22T05:32:36;100124.23;;;21.86;85.83
59073;BME280;44859;51.934;15.554;2023-06-22T05:35:04;100125.70;;;22.31;83.93
59073;BME280;44859;51.934;15.554;2023-06-22T05:37:32;100138.90;;;22.77;82.23
59073;BME280;44859;51.934;15.554;2023-06-22T05:39:59;100144.27;;;23.00;80.92
59073;BME280;44859;51.934;15.554;2023-06-22T05:42:29;100146.88;;;23.26;79.71
59073;BME280;44859;51.934;15.554;2023-06-22T05:44:56;100149.46;;;23.36;78.54
59073;BME280;44859;51.934;15.554;2023-06-22T05:47:24;100150.13;;;23.44;77.25
59073;BME280;44859;51.934;15.554;2023-06-22T05:49:52;100151.98;;;23.45;76.05
59073;BME280;44859;51.934;15.554;2023-06-22T05:52:19;100153.40;;;23.31;75.29
59073;BME280;44859;51.934;15.554;2023-06-22T05:54:46;100160.91;;;23.23;74.43
59073;BME280;44859;51.934;15.554;2023-06-22T05:57:12;100168.17;;;23.30;73.18
59073;BME280;44859;51.934;15.554;2023-06-22T05:59:40;100169.23;;;23.30;73.04
59073;BME280;44859;51.934;15.554;2023-06-22T06:02:17;100167.98;;;23.30;72.91
59073;BME280;44859;51.934;15.554;2023-06-22T06:04:53;100173.76;;;23.24;72.50
59073;BME280;44859;51.934;15.554;2023-06-22T06:07:21;100178.58;;;23.29;71.69
59073;BME280;44859;51.934;15.554;2023-06-22T06:09:48;100182.45;;;23.29;71.14
59073;BME280;44859;51.934;15.554;2023-06-22T06:12:15;100179.37;;;23.42;70.97
59073;BME280;44859;51.934;15.554;2023-06-22T06:14:52;100184.61;;;23.58;70.86
59073;BME280;44859;51.934;15.554;2023-06-22T06:17:27;100183.92;;;23.88;69.93
59073;BME280;44859;51.934;15.554;2023-06-22T06:20:04;100192.65;;;23.97;68.98
59073;BME280;44859;51.934;15.554;2023-06-22T06:22:42;100190.06;;;24.11;68.37
59073;BME280;44859;51.934;15.554;2023-06-22T06:25:13;100193.29;;;24.04;67.50
59073;BME280;44859;51.934;15.554;2023-06-22T06:27:43;100199.09;;;24.09;67.46
59073;BME280;44859;51.934;15.554;2023-06-22T06:30:14;100197.23;;;24.15;66.75
59073;BME280;44859;51.934;15.554;2023-06-22T06:32:42;100200.96;;;24.11;65.95
59073;BME280;44859;51.934;15.554;2023-06-22T06:35:14;100197.85;;;24.16;65.86
59073;BME280;44859;51.934;15.554;2023-06-22T06:37:44;100199.10;;;24.39;66.09
59073;BME280;44859;51.934;15.554;2023-06-22T06:40:14;100201.00;;;24.60;65.29
59073;BME280;44859;51.934;15.554;2023-06-22T06:43:05;100199.49;;;24.62;64.83
59073;BME280;44859;51.934;15.554;2023-06-22T06:45:32;100205.67;;;24.38;64.21
59073;BME280;44859;51.934;15.554;2023-06-22T06:48:01;100205.68;;;24.23;64.96
59073;BME280;44859;51.934;15.554;2023-06-22T06:50:28;100206.79;;;24.34;64.99
59073;BME280;44859;51.934;15.554;2023-06-22T06:52:57;100206.64;;;24.47;64.71
59073;BME280;44859;51.934;15.554;2023-06-22T06:55:35;100202.36;;;24.48;64.63
59073;BME280;44859;51.934;15.554;2023-06-22T06:58:02;100204.23;;;24.65;63.99
59073;BME280;44859;51.934;15.554;2023-06-22T07:00:35;100196.73;;;24.73;63.65
59073;BME280;44859;51.934;15.554;2023-06-22T07:03:10;100197.17;;;24.85;63.68
59073;BME280;44859;51.934;15.554;2023-06-22T07:05:38;100193.16;;;25.15;63.36
59073;BME280;44859;51.934;15.554;2023-06-22T07:08:05;100192.69;;;25.36;62.88
59073;BME280;44859;51.934;15.554;2023-06-22T07:10:38;100185.90;;;25.49;62.22
59073;BME280;44859;51.934;15.554;2023-06-22T07:13:09;100192.46;;;25.40;62.03
59073;BME280;44859;51.934;15.554;2023-06-22T07:15:36;100191.73;;;25.13;61.99
59073;BME280;44859;51.934;15.554;2023-06-22T07:18:03;100194.59;;;25.12;61.97
59073;BME280;44859;51.934;15.554;2023-06-22T07:20:31;100194.60;;;25.14;61.81
59073;BME280;44859;51.934;15.554;2023-06-22T07:22:58;100195.56;;;25.06;61.60
59073;BME280;44859;51.934;15.554;2023-06-22T07:25:26;100197.55;;;24.87;61.92
59073;BME280;44859;51.934;15.554;2023-06-22T07:28:01;100200.23;;;24.84;61.85
59073;BME280;44859;51.934;15.554;2023-06-22T07:30:42;100200.36;;;24.70;61.91
59073;BME280;44859;51.934;15.554;2023-06-22T07:33:10;100193.23;;;24.76;62.37
59073;BME280;44859;51.934;15.554;2023-06-22T07:35:40;100183.73;;;24.95;62.15
59073;BME280;44859;51.934;15.554;2023-06-22T07:38:08;100182.59;;;24.99;61.78
59073;BME280;44859;51.934;15.554;2023-06-22T07:40:36;100185.64;;;24.99;60.98
59073;BME280;44859;51.934;15.554;2023-06-22T07:43:03;100182.58;;;25.08;60.74
59073;BME280;44859;51.934;15.554;2023-06-22T07:45:30;100178.98;;;25.29;60.87
59073;BME280;44859;51.934;15.554;2023-06-22T07:48:01;100167.55;;;25.42;60.93
59073;BME280;44859;51.934;15.554;2023-06-22T07:50:30;100160.86;;;25.51;60.67
59073;BME280;44859;51.934;15.554;2023-06-22T07:52:58;100159.36;;;25.65;60.56
59073;BME280;44859;51.934;15.554;2023-06-22T07:55:25;100160.59;;;25.84;59.75
59073;BME280;44859;51.934;15.554;2023-06-22T07:57:53;100152.41;;;25.92;59.12
59073;BME280;44859;51.934;15.554;2023-06-22T08:00:20;100146.45;;;26.02;58.27
59073;BME280;44859;51.934;15.554;2023-06-22T08:02:47;100143.69;;;26.00;57.13
59073;BME280;44859;51.934;15.554;2023-06-22T08:05:15;100138.77;;;25.92;56.65
59073;BME280;44859;51.934;15.554;2023-06-22T08:07:49;100137.02;;;25.89;56.58
59073;BME280;44859;51.934;15.554;2023-06-22T08:10:26;100130.69;;;26.00;57.20
59073;BME280;44859;51.934;15.554;2023-06-22T08:12:53;100132.73;;;26.06;56.23
59073;BME280;44859;51.934;15.554;2023-06-22T08:15:20;100133.85;;;25.89;54.84
59073;BME280;44859;51.934;15.554;2023-06-22T08:17:48;100140.56;;;25.88;55.70
59073;BME280;44859;51.934;15.554;2023-06-22T08:20:16;100141.59;;;26.05;55.41
59073;BME280;44859;51.934;15.554;2023-06-22T08:22:43;100147.62;;;26.27;54.52
59073;BME280;44859;51.934;15.554;2023-06-22T08:25:11;100145.09;;;26.43;52.47
59073;BME280;44859;51.934;15.554;2023-06-22T08:27:45;100145.69;;;26.61;51.77
59073;BME280;44859;51.934;15.554;2023-06-22T08:30:24;100155.80;;;26.68;51.47
59073;BME280;44859;51.934;15.554;2023-06-22T08:32:51;100155.55;;;26.64;49.20
59073;BME280;44859;51.934;15.554;2023-06-22T08:35:19;100147.16;;;26.58;48.99
59073;BME280;44859;51.934;15.554;2023-06-22T08:37:47;100144.78;;;26.72;49.07
59073;BME280;44859;51.934;15.554;2023-06-22T08:40:20;100145.18;;;26.77;48.56
59073;BME280;44859;51.934;15.554;2023-06-22T08:42:48;100150.75;;;26.81;48.82
59073;BME280;44859;51.934;15.554;2023-06-22T08:45:18;100156.35;;;27.09;48.95
59073;BME280;44859;51.934;15.554;2023-06-22T08:47:45;100154.09;;;27.19;48.94
59073;BME280;44859;51.934;15.554;2023-06-22T08:50:13;100156.23;;;26.73;49.54
59073;BME280;44859;51.934;15.554;2023-06-22T08:52:41;100158.26;;;26.67;49.47
59073;BME280;44859;51.934;15.554;2023-06-22T08:55:10;100159.53;;;26.37;49.10
59073;BME280;44859;51.934;15.554;2023-06-22T08:57:37;100156.88;;;26.42;49.33
59073;BME280;44859;51.934;15.554;2023-06-22T09:00:09;100150.05;;;26.62;48.51
59073;BME280;44859;51.934;15.554;2023-06-22T09:02:44;100157.50;;;26.72;48.24
59073;BME280;44859;51.934;15.554;2023-06-22T09:05:14;100160.41;;;26.61;47.42
59073;BME280;44859;51.934;15.554;2023-06-22T09:07:41;100153.39;;;26.39;47.59
59073;BME280;44859;51.934;15.554;2023-06-22T09:10:08;100152.71;;;26.37;47.83
59073;BME280;44859;51.934;15.554;2023-06-22T09:12:45;100150.92;;;26.55;47.04
59073;BME280;44859;51.934;15.554;2023-06-22T09:15:12;100142.61;;;26.78;46.48
59073;BME280;44859;51.934;15.554;2023-06-22T09:17:45;100139.46;;;26.78;46.34
59073;BME280;44859;51.934;15.554;2023-06-22T09:20:21;100134.88;;;26.96;45.64
59073;BME280;44859;51.934;15.554;2023-06-22T09:22:49;100128.77;;;27.08;44.27
59073;BME280;44859;51.934;15.554;2023-06-22T09:25:16;100128.13;;;27.21;44.69
59073;BME280;44859;51.934;15.554;2023-06-22T09:27:43;100117.23;;;27.47;44.62
59073;BME280;44859;51.934;15.554;2023-06-22T09:30:10;100115.92;;;27.60;43.64
59073;BME280;44859;51.934;15.554;2023-06-22T09:32:38;100112.89;;;27.83;43.66
59073;BME280;44859;51.934;15.554;2023-06-22T09:35:06;100110.45;;;28.36;42.69
59073;BME280;44859;51.934;15.554;2023-06-22T09:37:34;100110.21;;;28.84;40.77
59073;BME280;44859;51.934;15.554;2023-06-22T09:40:02;100107.94;;;28.68;39.69
59073;BME280;44859;51.934;15.554;2023-06-22T09:42:35;100107.88;;;28.47;39.68
59073;BME280;44859;51.934;15.554;2023-06-22T09:45:02;100105.90;;;28.43;39.26
59073;BME280;44859;51.934;15.554;2023-06-22T09:47:29;100102.33;;;28.30;39.67
59073;BME280;44859;51.934;15.554;2023-06-22T09:49:57;100101.81;;;28.18;39.30
59073;BME280;44859;51.934;15.554;2023-06-22T09:52:26;100102.17;;;28.11;39.31
59073;BME280;44859;51.934;15.554;2023-06-22T09:55:10;100099.67;;;28.02;39.48
59073;BME280;44859;51.934;15.554;2023-06-22T09:57:37;100101.98;;;28.04;39.35
59073;BME280;44859;51.934;15.554;2023-06-22T10:00:05;100096.39;;;28.07;38.93
59073;BME280;44859;51.934;15.554;2023-06-22T10:02:38;100091.60;;;27.83;39.46
59073;BME280;44859;51.934;15.554;2023-06-22T10:05:06;100104.42;;;27.68;39.41
59073;BME280;44859;51.934;15.554;2023-06-22T10:07:35;100099.86;;;27.82;39.10
59073;BME280;44859;51.934;15.554;2023-06-22T10:10:08;100095.79;;;27.80;38.66
59073;BME280;44859;51.934;15.554;2023-06-22T10:12:36;100102.42;;;27.57;39.10
59073;BME280;44859;51.934;15.554;2023-06-22T10:15:04;100095.40;;;27.36;39.77
59073;BME280;44859;51.934;15.554;2023-06-22T10:17:33;100091.30;;;27.18;40.05
59073;BME280;44859;51.934;15.554;2023-06-22T10:20:00;100085.36;;;27.24;39.94
59073;BME280;44859;51.934;15.554;2023-06-22T10:22:32;100084.45;;;27.40;40.18
59073;BME280;44859;51.934;15.554;2023-06-22T10:25:00;100083.34;;;27.58;40.26
59073;BME280;44859;51.934;15.554;2023-06-22T10:27:28;100077.29;;;27.79;39.80
59073;BME280;44859;51.934;15.554;2023-06-22T10:29:55;100076.92;;;27.93;39.36
59073;BME280;44859;51.934;15.554;2023-06-22T10:32:26;100074.20;;;28.10;39.64
59073;BME280;44859;51.934;15.554;2023-06-22T10:34:56;100071.23;;;28.44;39.12
59073;BME280;44859;51.934;15.554;2023-06-22T10:37:29;100073.02;;;28.61;38.01
59073;BME280;44859;51.934;15.554;2023-06-22T10:40:00;100073.33;;;28.49;38.01
59073;BME280;44859;51.934;15.554;2023-06-22T10:42:29;100073.40;;;28.46;37.75
59073;BME280;44859;51.934;15.554;2023-06-22T10:45:08;100079.25;;;28.21;37.53
59073;BME280;44859;51.934;15.554;2023-06-22T10:47:35;100087.42;;;27.91;37.45
59073;BME280;44859;51.934;15.554;2023-06-22T10:50:04;100079.80;;;27.68;37.67
59073;BME280;44859;51.934;15.554;2023-06-22T10:52:31;100080.26;;;27.84;38.50
59073;BME280;44859;51.934;15.554;2023-06-22T10:54:59;100077.48;;;28.05;38.08
59073;BME280;44859;51.934;15.554;2023-06-22T10:57:27;100079.98;;;28.30;38.13
59073;BME280;44859;51.934;15.554;2023-06-22T10:59:54;100082.23;;;28.64;37.87
59073;BME280;44859;51.934;15.554;2023-06-22T11:02:23;100081.08;;;28.84;37.76
59073;BME280;44859;51.934;15.554;2023-06-22T11:04:51;100077.88;;;29.22;37.28
59073;BME280;44859;51.934;15.554;2023-06-22T11:07:18;100081.17;;;29.54;36.85
59073;BME280;44859;51.934;15.554;2023-06-22T11:09:46;100073.80;;;29.71;36.04
59073;BME280;44859;51.934;15.554;2023-06-22T11:12:13;100079.78;;;29.29;35.74
59073;BME280;44859;51.934;15.554;2023-06-22T11:14:41;100072.14;;;28.78;36.48
59073;BME280;44859;51.934;15.554;2023-06-22T11:17:09;100065.39;;;28.54;37.06
59073;BME280;44859;51.934;15.554;2023-06-22T11:19:36;100064.31;;;28.64;37.48
59073;BME280;44859;51.934;15.554;2023-06-22T11:22:04;100065.73;;;28.75;37.04
59073;BME280;44859;51.934;15.554;2023-06-22T11:24:31;100060.04;;;28.80;36.75
59073;BME280;44859;51.934;15.554;2023-06-22T11:27:02;100059.84;;;28.75;36.80
59073;BME280;44859;51.934;15.554;2023-06-22T11:29:29;100063.58;;;28.64;36.85
59073;BME280;44859;51.934;15.554;2023-06-22T11:32:06;100061.90;;;28.47;36.67
59073;BME280;44859;51.934;15.554;2023-06-22T11:34:33;100063.05;;;28.27;37.14
59073;BME280;44859;51.934;15.554;2023-06-22T11:37:01;100061.74;;;28.04;37.10
59073;BME280;44859;51.934;15.554;2023-06-22T11:39:28;100059.02;;;27.81;37.54
59073;BME280;44859;51.934;15.554;2023-06-22T11:42:11;100051.41;;;27.66;37.34
59073;BME280;44859;51.934;15.554;2023-06-22T11:44:40;100044.52;;;27.56;37.74
59073;BME280;44859;51.934;15.554;2023-06-22T11:47:07;100044.48;;;27.58;37.71
59073;BME280;44859;51.934;15.554;2023-06-22T11:49:35;100039.10;;;27.96;37.89
59073;BME280;44859;51.934;15.554;2023-06-22T11:52:06;100038.95;;;28.47;37.22
59073;BME280;44859;51.934;15.554;2023-06-22T11:54:34;100031.30;;;28.61;37.09
59073;BME280;44859;51.934;15.554;2023-06-22T11:57:02;100035.18;;;28.63;36.80
59073;BME280;44859;51.934;15.554;2023-06-22T11:59:29;100027.53;;;28.44;36.97
59073;BME280;44859;51.934;15.554;2023-06-22T12:01:57;100029.77;;;28.41;37.31
59073;BME280;44859;51.934;15.554;2023-06-22T12:04:26;100032.37;;;28.26;36.93
59073;BME280;44859;51.934;15.554;2023-06-22T12:07:02;100027.53;;;28.00;37.39
59073;BME280;44859;51.934;15.554;2023-06-22T12:09:30;100021.02;;;27.88;37.82
59073;BME280;44859;51.934;15.554;2023-06-22T12:11:57;100023.21;;;27.82;37.52
59073;BME280;44859;51.934;15.554;2023-06-22T12:14:24;100018.77;;;27.78;37.74
59073;BME280;44859;51.934;15.554;2023-06-22T12:17:15;100017.30;;;27.75;37.45
59073;BME280;44859;51.934;15.554;2023-06-22T12:19:42;100015.52;;;27.66;37.76
59073;BME280;44859;51.934;15.554;2023-06-22T12:22:09;100007.54;;;27.69;37.83
59073;BME280;44859;51.934;15.554;2023-06-22T12:24:36;100006.25;;;27.86;37.53
59073;BME280;44859;51.934;15.554;2023-06-22T12:27:04;100007.52;;;27.97;37.47
59073;BME280;44859;51.934;15.554;2023-06-22T12:29:31;100005.00;;;28.21;37.19
59073;BME280;44859;51.934;15.554;2023-06-22T12:31:58;100002.71;;;28.57;36.82
59073;BME280;44859;51.934;15.554;2023-06-22T12:34:25;100004.66;;;28.96;36.61
59073;BME280;44859;51.934;15.554;2023-06-22T12:36:52;100001.91;;;29.15;35.73
59073;BME280;44859;51.934;15.554;2023-06-22T12:39:21;99992.20;;;29.28;35.83
59073;BME280;44859;51.934;15.554;2023-06-22T12:41:48;99989.46;;;29.54;35.59
59073;BME280;44859;51.934;15.554;2023-06-22T12:44:15;99988.86;;;29.57;35.08
59073;BME280;44859;51.934;15.554;2023-06-22T12:46:42;99994.50;;;29.22;34.88
59073;BME280;44859;51.934;15.554;2023-06-22T12:49:10;99988.91;;;28.84;35.52
59073;BME280;44859;51.934;15.554;2023-06-22T12:51:42;99988.84;;;28.55;35.94
59073;BME280;44859;51.934;15.554;2023-06-22T12:54:10;99986.81;;;28.42;36.37
59073;BME280;44859;51.934;15.554;2023-06-22T12:56:40;99983.88;;;28.47;36.51
59073;BME280;44859;51.934;15.554;2023-06-22T12:59:08;99977.99;;;28.49;36.55
59073;BME280;44859;51.934;15.554;2023-06-22T13:01:35;99977.94;;;28.39;36.26
59073;BME280;44859;51.934;15.554;2023-06-22T13:04:04;99982.77;;;28.44;36.93
59073;BME280;44859;51.934;15.554;2023-06-22T13:06:31;99983.23;;;28.75;36.41
59073;BME280;44859;51.934;15.554;2023-06-22T13:08:58;99982.55;;;29.01;36.22
59073;BME280;44859;51.934;15.554;2023-06-22T13:11:46;99976.55;;;29.05;35.70
59073;BME280;44859;51.934;15.554;2023-06-22T13:14:13;99973.70;;;28.99;35.90
59073;BME280;44859;51.934;15.554;2023-06-22T13:16:42;99974.27;;;29.27;36.09